Robbinsdale, Minnesota
Current Conditions -  °F | °C
As of 9:53 PM on Wednesday 22 Oct 2014 (Local Time) from KMIC Reporting Station
Clear Clear  
Wind Chill: 57°   Ceiling: Unl
Heat Index: 57°   Visibility: 10mi
Dew Point: 40°   Wind: 15mph
Humidity: 53%   Direction: 150°SSE
Pressure: 30.03"   Gusts: 22mph
Location:  45.0089°N, 93.3395°W
Report Text: KMIC 230253Z AUTO 15013G19KT 10SM CLR 14/04 A3003 RMK AO2 SLP171 T01390044 50005
Loading
Personal Weather Stations






























Interactive Weather Map
Tropical Storm Tracking
New forecast layout! Learn more

10-Day Weather Forecast

Advertisements
Track Severe Weather on mobile